sensor_id;sensor_type;location;lat;lon;timestamp;P1;durP1;ratioP1;P2;durP2;ratioP2
21014;SDS011;19207;-23.482;-46.500;2023-03-26T00:00:29;49.80;;;28.77;;
21014;SDS011;19207;-23.482;-46.500;2023-03-26T00:03:17;62.65;;;28.48;;
21014;SDS011;19207;-23.482;-46.500;2023-03-26T00:06:07;51.10;;;27.95;;
21014;SDS011;19207;-23.482;-46.500;2023-03-26T00:08:55;68.72;;;28.85;;
21014;SDS011;19207;-23.482;-46.500;2023-03-26T00:11:43;52.30;;;27.98;;
21014;SDS011;19207;-23.482;-46.500;2023-03-26T00:14:33;56.53;;;29.02;;
21014;SDS011;19207;-23.482;-46.500;2023-03-26T00:17:20;52.88;;;28.45;;
21014;SDS011;19207;-23.482;-46.500;2023-03-26T00:20:07;55.25;;;28.77;;
21014;SDS011;19207;-23.482;-46.500;2023-03-26T00:22:55;57.25;;;30.52;;
21014;SDS011;19207;-23.482;-46.500;2023-03-26T00:25:49;52.80;;;27.85;;
21014;SDS011;19207;-23.482;-46.500;2023-03-26T00:28:37;55.95;;;29.20;;
21014;SDS011;19207;-23.482;-46.500;2023-03-26T00:31:26;58.35;;;30.83;;
21014;SDS011;19207;-23.482;-46.500;2023-03-26T00:34:14;62.35;;;30.12;;
21014;SDS011;19207;-23.482;-46.500;2023-03-26T00:37:03;56.30;;;29.85;;
21014;SDS011;19207;-23.482;-46.500;2023-03-26T00:39:52;75.47;;;30.42;;
21014;SDS011;19207;-23.482;-46.500;2023-03-26T00:42:44;65.03;;;29.85;;
21014;SDS011;19207;-23.482;-46.500;2023-03-26T00:45:32;50.33;;;28.05;;
21014;SDS011;19207;-23.482;-46.500;2023-03-26T00:48:20;60.60;;;28.95;;
21014;SDS011;19207;-23.482;-46.500;2023-03-26T00:51:08;59.78;;;30.35;;
21014;SDS011;19207;-23.482;-46.500;2023-03-26T00:53:56;65.12;;;29.83;;
21014;SDS011;19207;-23.482;-46.500;2023-03-26T00:56:47;53.20;;;27.02;;
21014;SDS011;19207;-23.482;-46.500;2023-03-26T00:59:33;60.28;;;28.58;;
21014;SDS011;19207;-23.482;-46.500;2023-03-26T01:02:22;54.78;;;27.45;;
21014;SDS011;19207;-23.482;-46.500;2023-03-26T01:08:24;61.42;;;28.83;;
21014;SDS011;19207;-23.482;-46.500;2023-03-26T01:11:18;62.47;;;31.95;;
21014;SDS011;19207;-23.482;-46.500;2023-03-26T01:14:12;68.93;;;31.20;;
21014;SDS011;19207;-23.482;-46.500;2023-03-26T01:17:01;63.17;;;31.73;;
21014;SDS011;19207;-23.482;-46.500;2023-03-26T01:19:56;61.17;;;32.10;;
21014;SDS011;19207;-23.482;-46.500;2023-03-26T01:22:53;71.87;;;33.20;;
21014;SDS011;19207;-23.482;-46.500;2023-03-26T01:25:43;66.82;;;32.45;;
21014;SDS011;19207;-23.482;-46.500;2023-03-26T01:30:23;63.83;;;32.65;;
21014;SDS011;19207;-23.482;-46.500;2023-03-26T01:36:08;65.43;;;33.22;;
21014;SDS011;19207;-23.482;-46.500;2023-03-26T01:39:07;60.63;;;32.35;;
21014;SDS011;19207;-23.482;-46.500;2023-03-26T01:41:57;69.03;;;31.90;;
21014;SDS011;19207;-23.482;-46.500;2023-03-26T01:47:39;59.08;;;31.77;;
21014;SDS011;19207;-23.482;-46.500;2023-03-26T01:50:28;60.45;;;32.22;;
21014;SDS011;19207;-23.482;-46.500;2023-03-26T01:53:17;64.87;;;33.58;;
21014;SDS011;19207;-23.482;-46.500;2023-03-26T02:05:01;78.72;;;37.30;;
21014;SDS011;19207;-23.482;-46.500;2023-03-26T02:07:54;80.53;;;37.28;;
21014;SDS011;19207;-23.482;-46.500;2023-03-26T02:10:44;73.37;;;37.75;;
21014;SDS011;19207;-23.482;-46.500;2023-03-26T02:13:32;80.20;;;37.28;;
21014;SDS011;19207;-23.482;-46.500;2023-03-26T02:16:20;70.85;;;36.10;;
21014;SDS011;19207;-23.482;-46.500;2023-03-26T02:19:07;68.35;;;35.13;;
21014;SDS011;19207;-23.482;-46.500;2023-03-26T02:21:59;76.07;;;36.30;;
21014;SDS011;19207;-23.482;-46.500;2023-03-26T02:24:47;101.05;;;53.45;;
21014;SDS011;19207;-23.482;-46.500;2023-03-26T02:27:35;100.40;;;53.83;;
21014;SDS011;19207;-23.482;-46.500;2023-03-26T02:30:23;102.62;;;55.15;;
21014;SDS011;19207;-23.482;-46.500;2023-03-26T02:33:14;92.30;;;49.95;;
21014;SDS011;19207;-23.482;-46.500;2023-03-26T02:36:03;78.90;;;43.03;;
21014;SDS011;19207;-23.482;-46.500;2023-03-26T02:38:52;76.75;;;38.13;;
21014;SDS011;19207;-23.482;-46.500;2023-03-26T02:41:40;71.18;;;37.42;;
21014;SDS011;19207;-23.482;-46.500;2023-03-26T02:44:28;79.43;;;37.28;;
21014;SDS011;19207;-23.482;-46.500;2023-03-26T02:47:17;76.45;;;37.47;;
21014;SDS011;19207;-23.482;-46.500;2023-03-26T02:50:06;83.15;;;43.05;;
21014;SDS011;19207;-23.482;-46.500;2023-03-26T02:52:53;84.45;;;44.65;;
21014;SDS011;19207;-23.482;-46.500;2023-03-26T02:55:40;106.95;;;50.78;;
21014;SDS011;19207;-23.482;-46.500;2023-03-26T02:58:28;104.55;;;51.37;;
21014;SDS011;19207;-23.482;-46.500;2023-03-26T03:01:17;100.87;;;48.65;;
21014;SDS011;19207;-23.482;-46.500;2023-03-26T03:04:05;115.47;;;53.22;;
21014;SDS011;19207;-23.482;-46.500;2023-03-26T03:06:52;106.93;;;48.15;;
21014;SDS011;19207;-23.482;-46.500;2023-03-26T03:09:42;103.70;;;51.50;;
21014;SDS011;19207;-23.482;-46.500;2023-03-26T03:12:31;141.65;;;67.32;;
21014;SDS011;19207;-23.482;-46.500;2023-03-26T03:15:18;126.72;;;61.75;;
21014;SDS011;19207;-23.482;-46.500;2023-03-26T03:18:06;100.60;;;49.88;;
21014;SDS011;19207;-23.482;-46.500;2023-03-26T03:20:54;110.35;;;53.08;;
21014;SDS011;19207;-23.482;-46.500;2023-03-26T03:23:42;109.72;;;53.10;;
21014;SDS011;19207;-23.482;-46.500;2023-03-26T03:26:30;108.25;;;53.03;;
21014;SDS011;19207;-23.482;-46.500;2023-03-26T03:29:18;128.50;;;60.70;;
21014;SDS011;19207;-23.482;-46.500;2023-03-26T03:32:06;133.63;;;60.72;;
21014;SDS011;19207;-23.482;-46.500;2023-03-26T03:34:53;118.87;;;56.05;;
21014;SDS011;19207;-23.482;-46.500;2023-03-26T03:37:41;113.30;;;53.28;;
21014;SDS011;19207;-23.482;-46.500;2023-03-26T03:40:30;112.57;;;53.65;;
21014;SDS011;19207;-23.482;-46.500;2023-03-26T03:43:17;125.62;;;57.92;;
21014;SDS011;19207;-23.482;-46.500;2023-03-26T03:46:04;127.38;;;57.92;;
21014;SDS011;19207;-23.482;-46.500;2023-03-26T03:48:51;149.05;;;56.22;;
21014;SDS011;19207;-23.482;-46.500;2023-03-26T03:51:40;132.50;;;56.85;;
21014;SDS011;19207;-23.482;-46.500;2023-03-26T03:54:27;127.55;;;55.92;;
21014;SDS011;19207;-23.482;-46.500;2023-03-26T03:57:14;128.77;;;53.75;;
21014;SDS011;19207;-23.482;-46.500;2023-03-26T04:00:05;140.85;;;53.95;;
21014;SDS011;19207;-23.482;-46.500;2023-03-26T04:03:01;122.90;;;53.38;;
21014;SDS011;19207;-23.482;-46.500;2023-03-26T04:05:50;134.52;;;57.60;;
21014;SDS011;19207;-23.482;-46.500;2023-03-26T04:08:39;120.37;;;52.38;;
21014;SDS011;19207;-23.482;-46.500;2023-03-26T04:11:27;121.00;;;52.55;;
21014;SDS011;19207;-23.482;-46.500;2023-03-26T04:14:16;138.95;;;56.67;;
21014;SDS011;19207;-23.482;-46.500;2023-03-26T04:17:03;123.75;;;53.55;;
21014;SDS011;19207;-23.482;-46.500;2023-03-26T04:19:50;130.93;;;57.95;;
21014;SDS011;19207;-23.482;-46.500;2023-03-26T04:22:41;128.30;;;55.58;;
21014;SDS011;19207;-23.482;-46.500;2023-03-26T04:25:30;121.40;;;54.45;;
21014;SDS011;19207;-23.482;-46.500;2023-03-26T04:28:25;124.22;;;52.62;;
21014;SDS011;19207;-23.482;-46.500;2023-03-26T04:31:16;125.72;;;51.22;;
21014;SDS011;19207;-23.482;-46.500;2023-03-26T04:34:13;124.12;;;50.33;;
21014;SDS011;19207;-23.482;-46.500;2023-03-26T04:37:08;125.93;;;51.25;;
21014;SDS011;19207;-23.482;-46.500;2023-03-26T04:40:02;126.72;;;49.47;;
21014;SDS011;19207;-23.482;-46.500;2023-03-26T04:42:57;107.37;;;48.35;;
21014;SDS011;19207;-23.482;-46.500;2023-03-26T04:45:47;124.55;;;56.00;;
21014;SDS011;19207;-23.482;-46.500;2023-03-26T04:48:37;119.72;;;51.70;;
21014;SDS011;19207;-23.482;-46.500;2023-03-26T04:51:26;113.05;;;50.38;;
21014;SDS011;19207;-23.482;-46.500;2023-03-26T04:54:20;119.40;;;51.78;;
21014;SDS011;19207;-23.482;-46.500;2023-03-26T04:57:20;117.25;;;52.03;;
21014;SDS011;19207;-23.482;-46.500;2023-03-26T05:00:10;121.13;;;48.67;;
21014;SDS011;19207;-23.482;-46.500;2023-03-26T05:03:02;121.47;;;49.90;;
21014;SDS011;19207;-23.482;-46.500;2023-03-26T05:05:51;114.15;;;46.25;;
21014;SDS011;19207;-23.482;-46.500;2023-03-26T05:08:40;119.60;;;48.50;;
21014;SDS011;19207;-23.482;-46.500;2023-03-26T05:11:28;114.78;;;48.75;;
21014;SDS011;19207;-23.482;-46.500;2023-03-26T05:14:17;115.10;;;48.65;;
21014;SDS011;19207;-23.482;-46.500;2023-03-26T05:17:08;133.90;;;57.50;;
21014;SDS011;19207;-23.482;-46.500;2023-03-26T05:20:04;123.45;;;53.78;;
21014;SDS011;19207;-23.482;-46.500;2023-03-26T05:22:54;104.45;;;46.95;;
21014;SDS011;19207;-23.482;-46.500;2023-03-26T05:25:43;106.60;;;45.33;;
21014;SDS011;19207;-23.482;-46.500;2023-03-26T05:28:34;107.12;;;45.65;;
21014;SDS011;19207;-23.482;-46.500;2023-03-26T05:31:25;105.78;;;43.20;;
21014;SDS011;19207;-23.482;-46.500;2023-03-26T05:34:16;98.78;;;43.28;;
21014;SDS011;19207;-23.482;-46.500;2023-03-26T05:37:08;115.37;;;45.50;;
21014;SDS011;19207;-23.482;-46.500;2023-03-26T05:39:58;112.95;;;44.95;;
21014;SDS011;19207;-23.482;-46.500;2023-03-26T05:42:46;108.93;;;43.65;;
21014;SDS011;19207;-23.482;-46.500;2023-03-26T05:45:37;113.55;;;43.72;;
21014;SDS011;19207;-23.482;-46.500;2023-03-26T05:48:26;102.15;;;43.67;;
21014;SDS011;19207;-23.482;-46.500;2023-03-26T05:51:14;109.50;;;41.55;;
21014;SDS011;19207;-23.482;-46.500;2023-03-26T05:54:05;100.25;;;42.20;;
21014;SDS011;19207;-23.482;-46.500;2023-03-26T05:56:54;97.22;;;40.80;;
21014;SDS011;19207;-23.482;-46.500;2023-03-26T05:59:46;99.87;;;41.17;;
21014;SDS011;19207;-23.482;-46.500;2023-03-26T06:02:35;95.55;;;39.03;;
21014;SDS011;19207;-23.482;-46.500;2023-03-26T06:05:26;97.72;;;38.17;;
21014;SDS011;19207;-23.482;-46.500;2023-03-26T06:08:18;76.65;;;34.85;;
21014;SDS011;19207;-23.482;-46.500;2023-03-26T06:11:07;88.55;;;35.28;;
21014;SDS011;19207;-23.482;-46.500;2023-03-26T06:13:57;82.28;;;35.20;;
21014;SDS011;19207;-23.482;-46.500;2023-03-26T06:16:54;71.28;;;33.38;;
21014;SDS011;19207;-23.482;-46.500;2023-03-26T06:19:44;79.65;;;33.30;;
21014;SDS011;19207;-23.482;-46.500;2023-03-26T06:22:33;75.57;;;34.85;;
21014;SDS011;19207;-23.482;-46.500;2023-03-26T06:25:23;72.93;;;34.55;;
21014;SDS011;19207;-23.482;-46.500;2023-03-26T06:28:11;102.10;;;45.83;;
21014;SDS011;19207;-23.482;-46.500;2023-03-26T06:30:59;90.55;;;44.70;;
21014;SDS011;19207;-23.482;-46.500;2023-03-26T06:33:47;102.25;;;49.00;;
21014;SDS011;19207;-23.482;-46.500;2023-03-26T06:36:34;107.07;;;53.50;;
21014;SDS011;19207;-23.482;-46.500;2023-03-26T06:39:22;112.45;;;47.75;;
21014;SDS011;19207;-23.482;-46.500;2023-03-26T06:42:10;116.20;;;49.65;;
21014;SDS011;19207;-23.482;-46.500;2023-03-26T06:44:57;98.95;;;48.22;;
21014;SDS011;19207;-23.482;-46.500;2023-03-26T06:47:46;94.13;;;48.78;;
21014;SDS011;19207;-23.482;-46.500;2023-03-26T06:50:35;94.60;;;45.78;;
21014;SDS011;19207;-23.482;-46.500;2023-03-26T06:53:24;95.32;;;42.55;;
21014;SDS011;19207;-23.482;-46.500;2023-03-26T06:56:13;80.40;;;38.03;;
21014;SDS011;19207;-23.482;-46.500;2023-03-26T06:59:01;92.75;;;38.42;;
21014;SDS011;19207;-23.482;-46.500;2023-03-26T07:01:57;83.72;;;36.80;;
21014;SDS011;19207;-23.482;-46.500;2023-03-26T07:04:55;80.78;;;36.65;;
21014;SDS011;19207;-23.482;-46.500;2023-03-26T07:07:56;91.47;;;36.25;;
21014;SDS011;19207;-23.482;-46.500;2023-03-26T07:10:53;74.72;;;35.25;;
21014;SDS011;19207;-23.482;-46.500;2023-03-26T07:13:47;80.00;;;34.92;;
21014;SDS011;19207;-23.482;-46.500;2023-03-26T07:16:36;80.18;;;36.10;;
21014;SDS011;19207;-23.482;-46.500;2023-03-26T07:19:25;78.85;;;38.00;;
21014;SDS011;19207;-23.482;-46.500;2023-03-26T07:22:13;79.30;;;37.88;;
21014;SDS011;19207;-23.482;-46.500;2023-03-26T07:25:02;76.03;;;36.22;;
21014;SDS011;19207;-23.482;-46.500;2023-03-26T07:27:57;73.32;;;36.30;;
21014;SDS011;19207;-23.482;-46.500;2023-03-26T07:46:25;87.03;;;41.28;;
21014;SDS011;19207;-23.482;-46.500;2023-03-26T07:49:15;89.53;;;40.47;;
21014;SDS011;19207;-23.482;-46.500;2023-03-26T07:52:08;77.70;;;39.72;;
21014;SDS011;19207;-23.482;-46.500;2023-03-26T07:54:56;86.00;;;41.78;;
21014;SDS011;19207;-23.482;-46.500;2023-03-26T07:57:51;83.28;;;37.40;;
21014;SDS011;19207;-23.482;-46.500;2023-03-26T08:00:40;104.45;;;39.05;;
21014;SDS011;19207;-23.482;-46.500;2023-03-26T08:06:31;84.32;;;37.60;;
21014;SDS011;19207;-23.482;-46.500;2023-03-26T08:09:31;90.72;;;35.90;;
21014;SDS011;19207;-23.482;-46.500;2023-03-26T08:21:12;99.78;;;37.30;;
21014;SDS011;19207;-23.482;-46.500;2023-03-26T08:24:21;101.87;;;37.30;;
21014;SDS011;19207;-23.482;-46.500;2023-03-26T08:30:06;99.72;;;36.08;;
21014;SDS011;19207;-23.482;-46.500;2023-03-26T08:32:55;107.95;;;35.75;;
21014;SDS011;19207;-23.482;-46.500;2023-03-26T08:35:43;100.95;;;35.72;;
21014;SDS011;19207;-23.482;-46.500;2023-03-26T08:38:29;112.22;;;35.63;;
21014;SDS011;19207;-23.482;-46.500;2023-03-26T08:41:24;110.35;;;33.08;;
21014;SDS011;19207;-23.482;-46.500;2023-03-26T08:50:02;95.72;;;32.63;;
21014;SDS011;19207;-23.482;-46.500;2023-03-26T08:55:48;98.72;;;32.20;;
21014;SDS011;19207;-23.482;-46.500;2023-03-26T09:16:47;120.15;;;35.00;;
21014;SDS011;19207;-23.482;-46.500;2023-03-26T09:19:55;114.28;;;33.58;;
21014;SDS011;19207;-23.482;-46.500;2023-03-26T09:23:05;104.12;;;33.85;;
21014;SDS011;19207;-23.482;-46.500;2023-03-26T09:29:03;78.68;;;27.67;;
21014;SDS011;19207;-23.482;-46.500;2023-03-26T09:32:02;84.97;;;30.50;;
21014;SDS011;19207;-23.482;-46.500;2023-03-26T09:37:59;67.25;;;27.20;;
21014;SDS011;19207;-23.482;-46.500;2023-03-26T09:58:37;59.42;;;24.00;;
21014;SDS011;19207;-23.482;-46.500;2023-03-26T10:01:29;55.83;;;23.58;;
21014;SDS011;19207;-23.482;-46.500;2023-03-26T10:10:24;54.05;;;22.87;;
21014;SDS011;19207;-23.482;-46.500;2023-03-26T10:25:14;46.13;;;20.33;;
21014;SDS011;19207;-23.482;-46.500;2023-03-26T10:37:02;33.70;;;18.08;;
21014;SDS011;19207;-23.482;-46.500;2023-03-26T10:51:46;25.92;;;14.85;;
21014;SDS011;19207;-23.482;-46.500;2023-03-26T10:54:45;21.42;;;14.65;;
21014;SDS011;19207;-23.482;-46.500;2023-03-26T10:57:43;20.85;;;12.93;;
21014;SDS011;19207;-23.482;-46.500;2023-03-26T11:00:33;22.55;;;13.93;;
21014;SDS011;19207;-23.482;-46.500;2023-03-26T11:03:36;20.58;;;12.68;;
21014;SDS011;19207;-23.482;-46.500;2023-03-26T11:06:43;18.90;;;12.63;;
21014;SDS011;19207;-23.482;-46.500;2023-03-26T11:09:35;23.10;;;13.07;;
21014;SDS011;19207;-23.482;-46.500;2023-03-26T11:12:28;20.37;;;12.23;;
21014;SDS011;19207;-23.482;-46.500;2023-03-26T11:15:23;19.77;;;11.77;;
21014;SDS011;19207;-23.482;-46.500;2023-03-26T11:18:13;16.73;;;11.40;;
21014;SDS011;19207;-23.482;-46.500;2023-03-26T11:21:15;15.50;;;11.10;;
21014;SDS011;19207;-23.482;-46.500;2023-03-26T11:29:45;22.33;;;11.02;;
21014;SDS011;19207;-23.482;-46.500;2023-03-26T11:35:27;16.73;;;11.02;;
21014;SDS011;19207;-23.482;-46.500;2023-03-26T11:41:15;16.75;;;11.60;;
21014;SDS011;19207;-23.482;-46.500;2023-03-26T11:47:04;13.40;;;9.80;;
21014;SDS011;19207;-23.482;-46.500;2023-03-26T11:49:54;15.45;;;10.52;;
21014;SDS011;19207;-23.482;-46.500;2023-03-26T11:52:43;14.27;;;10.07;;
21014;SDS011;19207;-23.482;-46.500;2023-03-26T11:55:30;19.58;;;9.90;;
21014;SDS011;19207;-23.482;-46.500;2023-03-26T12:01:25;12.27;;;9.90;;
21014;SDS011;19207;-23.482;-46.500;2023-03-26T12:04:16;16.73;;;9.30;;
21014;SDS011;19207;-23.482;-46.500;2023-03-26T12:13:31;17.98;;;9.80;;
21014;SDS011;19207;-23.482;-46.500;2023-03-26T12:16:20;17.33;;;9.90;;
21014;SDS011;19207;-23.482;-46.500;2023-03-26T12:19:19;12.00;;;9.45;;
21014;SDS011;19207;-23.482;-46.500;2023-03-26T12:31:02;12.00;;;9.05;;
21014;SDS011;19207;-23.482;-46.500;2023-03-26T12:36:54;12.50;;;9.15;;
21014;SDS011;19207;-23.482;-46.500;2023-03-26T12:39:45;12.65;;;8.68;;
21014;SDS011;19207;-23.482;-46.500;2023-03-26T12:42:32;16.75;;;9.50;;
21014;SDS011;19207;-23.482;-46.500;2023-03-26T12:45:20;14.87;;;10.15;;
21014;SDS011;19207;-23.482;-46.500;2023-03-26T12:48:11;15.98;;;8.95;;
21014;SDS011;19207;-23.482;-46.500;2023-03-26T12:57:22;14.63;;;9.00;;
21014;SDS011;19207;-23.482;-46.500;2023-03-26T13:03:21;15.18;;;8.88;;
21014;SDS011;19207;-23.482;-46.500;2023-03-26T13:29:44;10.27;;;8.48;;
21014;SDS011;19207;-23.482;-46.500;2023-03-26T13:38:28;13.15;;;8.98;;
21014;SDS011;19207;-23.482;-46.500;2023-03-26T13:47:19;9.82;;;8.82;;
21014;SDS011;19207;-23.482;-46.500;2023-03-26T13:50:26;11.50;;;8.20;;
21014;SDS011;19207;-23.482;-46.500;2023-03-26T13:53:16;14.43;;;8.70;;
21014;SDS011;19207;-23.482;-46.500;2023-03-26T13:56:04;10.57;;;8.60;;
21014;SDS011;19207;-23.482;-46.500;2023-03-26T13:58:56;11.15;;;8.27;;
21014;SDS011;19207;-23.482;-46.500;2023-03-26T14:01:49;13.35;;;8.00;;
21014;SDS011;19207;-23.482;-46.500;2023-03-26T14:04:45;12.18;;;8.43;;
21014;SDS011;19207;-23.482;-46.500;2023-03-26T14:07:34;20.52;;;8.73;;
21014;SDS011;19207;-23.482;-46.500;2023-03-26T14:10:24;10.73;;;8.32;;
21014;SDS011;19207;-23.482;-46.500;2023-03-26T14:13:15;9.70;;;7.62;;
21014;SDS011;19207;-23.482;-46.500;2023-03-26T14:16:17;11.50;;;7.90;;
21014;SDS011;19207;-23.482;-46.500;2023-03-26T14:37:41;13.15;;;7.85;;
21014;SDS011;19207;-23.482;-46.500;2023-03-26T14:43:39;10.00;;;7.40;;
21014;SDS011;19207;-23.482;-46.500;2023-03-26T15:33:54;12.30;;;7.60;;
21014;SDS011;19207;-23.482;-46.500;2023-03-26T15:54:16;8.98;;;7.65;;
21014;SDS011;19207;-23.482;-46.500;2023-03-26T15:57:29;11.23;;;7.25;;
21014;SDS011;19207;-23.482;-46.500;2023-03-26T16:00:23;13.65;;;8.10;;
21014;SDS011;19207;-23.482;-46.500;2023-03-26T16:03:19;10.45;;;8.13;;
21014;SDS011;19207;-23.482;-46.500;2023-03-26T16:12:25;13.62;;;7.62;;
21014;SDS011;19207;-23.482;-46.500;2023-03-26T16:15:14;11.80;;;7.47;;
21014;SDS011;19207;-23.482;-46.500;2023-03-26T16:21:22;10.25;;;8.02;;
21014;SDS011;19207;-23.482;-46.500;2023-03-26T16:24:16;10.88;;;7.60;;
21014;SDS011;19207;-23.482;-46.500;2023-03-26T16:30:02;11.43;;;7.70;;
21014;SDS011;19207;-23.482;-46.500;2023-03-26T16:32:52;11.63;;;7.95;;
21014;SDS011;19207;-23.482;-46.500;2023-03-26T16:38:44;9.68;;;7.65;;
21014;SDS011;19207;-23.482;-46.500;2023-03-26T16:50:28;15.68;;;7.82;;
21014;SDS011;19207;-23.482;-46.500;2023-03-26T16:53:41;13.10;;;8.10;;
21014;SDS011;19207;-23.482;-46.500;2023-03-26T17:02:14;9.88;;;7.65;;
21014;SDS011;19207;-23.482;-46.500;2023-03-26T17:10:55;11.02;;;7.90;;
21014;SDS011;19207;-23.482;-46.500;2023-03-26T17:16:34;13.68;;;7.55;;
21014;SDS011;19207;-23.482;-46.500;2023-03-26T17:19:33;9.27;;;7.75;;
21014;SDS011;19207;-23.482;-46.500;2023-03-26T17:43:01;12.95;;;8.02;;
21014;SDS011;19207;-23.482;-46.500;2023-03-26T17:45:48;10.15;;;7.75;;
21014;SDS011;19207;-23.482;-46.500;2023-03-26T17:48:35;12.13;;;8.55;;
21014;SDS011;19207;-23.482;-46.500;2023-03-26T17:57:11;13.57;;;9.13;;
21014;SDS011;19207;-23.482;-46.500;2023-03-26T17:59:58;11.25;;;8.20;;
21014;SDS011;19207;-23.482;-46.500;2023-03-26T18:03:06;11.15;;;8.27;;
21014;SDS011;19207;-23.482;-46.500;2023-03-26T18:05:54;9.63;;;7.87;;
21014;SDS011;19207;-23.482;-46.500;2023-03-26T18:17:47;15.90;;;8.32;;
21014;SDS011;19207;-23.482;-46.500;2023-03-26T18:20:34;9.43;;;8.00;;
21014;SDS011;19207;-23.482;-46.500;2023-03-26T18:23:25;11.43;;;7.95;;
21014;SDS011;19207;-23.482;-46.500;2023-03-26T18:26:16;8.75;;;7.82;;
21014;SDS011;19207;-23.482;-46.500;2023-03-26T18:35:01;10.80;;;8.30;;
21014;SDS011;19207;-23.482;-46.500;2023-03-26T18:37:57;15.00;;;9.25;;
21014;SDS011;19207;-23.482;-46.500;2023-03-26T18:40:44;10.57;;;8.18;;
21014;SDS011;19207;-23.482;-46.500;2023-03-26T18:43:31;9.07;;;7.50;;
21014;SDS011;19207;-23.482;-46.500;2023-03-26T18:46:18;9.13;;;7.53;;
21014;SDS011;19207;-23.482;-46.500;2023-03-26T18:49:09;11.82;;;7.65;;
21014;SDS011;19207;-23.482;-46.500;2023-03-26T18:51:57;9.27;;;7.68;;
21014;SDS011;19207;-23.482;-46.500;2023-03-26T18:54:48;13.48;;;8.43;;
21014;SDS011;19207;-23.482;-46.500;2023-03-26T18:57:35;11.48;;;7.68;;
21014;SDS011;19207;-23.482;-46.500;2023-03-26T19:00:25;12.13;;;7.68;;
21014;SDS011;19207;-23.482;-46.500;2023-03-26T19:03:15;11.38;;;8.27;;
21014;SDS011;19207;-23.482;-46.500;2023-03-26T19:06:06;8.70;;;7.78;;
21014;SDS011;19207;-23.482;-46.500;2023-03-26T19:08:54;13.77;;;8.65;;
21014;SDS011;19207;-23.482;-46.500;2023-03-26T19:11:41;12.45;;;8.10;;
21014;SDS011;19207;-23.482;-46.500;2023-03-26T19:14:29;15.60;;;8.18;;
21014;SDS011;19207;-23.482;-46.500;2023-03-26T19:17:20;13.07;;;7.05;;
21014;SDS011;19207;-23.482;-46.500;2023-03-26T19:20:12;13.98;;;7.70;;
21014;SDS011;19207;-23.482;-46.500;2023-03-26T19:23:01;14.00;;;7.75;;
21014;SDS011;19207;-23.482;-46.500;2023-03-26T19:25:50;13.85;;;7.75;;
21014;SDS011;19207;-23.482;-46.500;2023-03-26T19:28:41;10.38;;;7.57;;
21014;SDS011;19207;-23.482;-46.500;2023-03-26T19:31:34;13.70;;;9.18;;
21014;SDS011;19207;-23.482;-46.500;2023-03-26T19:34:23;11.35;;;8.82;;
21014;SDS011;19207;-23.482;-46.500;2023-03-26T19:37:16;10.70;;;8.30;;
21014;SDS011;19207;-23.482;-46.500;2023-03-26T19:40:12;9.32;;;7.57;;
21014;SDS011;19207;-23.482;-46.500;2023-03-26T19:43:00;12.18;;;8.02;;
21014;SDS011;19207;-23.482;-46.500;2023-03-26T19:45:48;8.25;;;7.15;;
21014;SDS011;19207;-23.482;-46.500;2023-03-26T19:48:35;18.58;;;7.97;;
21014;SDS011;19207;-23.482;-46.500;2023-03-26T19:51:31;12.07;;;7.47;;
21014;SDS011;19207;-23.482;-46.500;2023-03-26T19:54:18;9.60;;;7.80;;
21014;SDS011;19207;-23.482;-46.500;2023-03-26T19:57:06;13.57;;;7.28;;
21014;SDS011;19207;-23.482;-46.500;2023-03-26T19:59:53;11.65;;;7.60;;
21014;SDS011;19207;-23.482;-46.500;2023-03-26T20:02:41;15.32;;;7.57;;
21014;SDS011;19207;-23.482;-46.500;2023-03-26T20:05:31;8.63;;;7.05;;
21014;SDS011;19207;-23.482;-46.500;2023-03-26T20:08:18;12.23;;;7.57;;
21014;SDS011;19207;-23.482;-46.500;2023-03-26T20:11:15;15.82;;;7.30;;
21014;SDS011;19207;-23.482;-46.500;2023-03-26T20:14:11;17.75;;;7.32;;
21014;SDS011;19207;-23.482;-46.500;2023-03-26T20:16:58;9.73;;;7.35;;
21014;SDS011;19207;-23.482;-46.500;2023-03-26T20:19:45;9.35;;;7.70;;
21014;SDS011;19207;-23.482;-46.500;2023-03-26T20:22:32;11.75;;;7.90;;
21014;SDS011;19207;-23.482;-46.500;2023-03-26T20:25:20;14.55;;;7.93;;
21014;SDS011;19207;-23.482;-46.500;2023-03-26T20:28:08;8.32;;;7.50;;
21014;SDS011;19207;-23.482;-46.500;2023-03-26T20:30:55;12.95;;;7.95;;
21014;SDS011;19207;-23.482;-46.500;2023-03-26T20:33:48;10.85;;;7.90;;
21014;SDS011;19207;-23.482;-46.500;2023-03-26T20:36:36;11.80;;;8.20;;
21014;SDS011;19207;-23.482;-46.500;2023-03-26T20:39:23;11.12;;;7.60;;
21014;SDS011;19207;-23.482;-46.500;2023-03-26T20:42:10;14.73;;;8.45;;
21014;SDS011;19207;-23.482;-46.500;2023-03-26T20:44:58;8.95;;;7.68;;
21014;SDS011;19207;-23.482;-46.500;2023-03-26T20:47:45;9.57;;;7.62;;
21014;SDS011;19207;-23.482;-46.500;2023-03-26T20:50:36;15.55;;;7.93;;
21014;SDS011;19207;-23.482;-46.500;2023-03-26T20:53:25;12.07;;;7.80;;
21014;SDS011;19207;-23.482;-46.500;2023-03-26T20:56:13;11.35;;;7.90;;
21014;SDS011;19207;-23.482;-46.500;2023-03-26T20:59:01;11.52;;;7.82;;
21014;SDS011;19207;-23.482;-46.500;2023-03-26T21:01:49;11.20;;;8.23;;
21014;SDS011;19207;-23.482;-46.500;2023-03-26T21:04:36;10.80;;;8.40;;
21014;SDS011;19207;-23.482;-46.500;2023-03-26T21:07:23;10.20;;;8.20;;
21014;SDS011;19207;-23.482;-46.500;2023-03-26T21:10:10;13.48;;;8.20;;
21014;SDS011;19207;-23.482;-46.500;2023-03-26T21:13:05;13.20;;;8.02;;
21014;SDS011;19207;-23.482;-46.500;2023-03-26T21:15:53;12.98;;;8.23;;
21014;SDS011;19207;-23.482;-46.500;2023-03-26T21:18:41;9.48;;;7.55;;
21014;SDS011;19207;-23.482;-46.500;2023-03-26T21:24:23;12.07;;;8.05;;
21014;SDS011;19207;-23.482;-46.500;2023-03-26T21:27:17;9.75;;;7.30;;
21014;SDS011;19207;-23.482;-46.500;2023-03-26T21:30:10;12.02;;;8.55;;
21014;SDS011;19207;-23.482;-46.500;2023-03-26T21:32:58;14.63;;;8.00;;
21014;SDS011;19207;-23.482;-46.500;2023-03-26T21:35:46;13.15;;;8.25;;
21014;SDS011;19207;-23.482;-46.500;2023-03-26T21:38:37;11.82;;;8.20;;
21014;SDS011;19207;-23.482;-46.500;2023-03-26T21:44:27;15.13;;;8.32;;
21014;SDS011;19207;-23.482;-46.500;2023-03-26T21:47:14;17.77;;;8.85;;
21014;SDS011;19207;-23.482;-46.500;2023-03-26T21:50:04;12.07;;;8.90;;
21014;SDS011;19207;-23.482;-46.500;2023-03-26T21:52:52;14.00;;;8.63;;
21014;SDS011;19207;-23.482;-46.500;2023-03-26T22:01:51;11.77;;;8.88;;
21014;SDS011;19207;-23.482;-46.500;2023-03-26T22:04:43;15.38;;;9.07;;
21014;SDS011;19207;-23.482;-46.500;2023-03-26T22:07:39;15.10;;;9.13;;
21014;SDS011;19207;-23.482;-46.500;2023-03-26T22:10:29;16.70;;;8.77;;
21014;SDS011;19207;-23.482;-46.500;2023-03-26T22:13:16;14.15;;;8.93;;
21014;SDS011;19207;-23.482;-46.500;2023-03-26T22:16:04;13.52;;;9.63;;
21014;SDS011;19207;-23.482;-46.500;2023-03-26T22:18:51;18.87;;;11.07;;
21014;SDS011;19207;-23.482;-46.500;2023-03-26T22:21:38;27.13;;;12.68;;
21014;SDS011;19207;-23.482;-46.500;2023-03-26T22:24:25;20.08;;;10.38;;
21014;SDS011;19207;-23.482;-46.500;2023-03-26T22:27:12;23.83;;;11.07;;
21014;SDS011;19207;-23.482;-46.500;2023-03-26T22:30:00;15.80;;;9.40;;
21014;SDS011;19207;-23.482;-46.500;2023-03-26T22:32:47;16.33;;;8.88;;
21014;SDS011;19207;-23.482;-46.500;2023-03-26T22:35:34;19.58;;;10.63;;